Time;durP1;ratioP1;P1;durP2;ratioP2;P2;SDS_P1;SDS_P2;PMS_P1;PMS_P2;Temp;Humidity;BMP_temperature;BMP_pressure;BME280_temperature;BME280_humidity;BME280_pressure;Samples;Min_cycle;Max_cycle;Signal;HPM_P1;HPM_P2
2022/06/17 00:01:30;;;;;;;4.93;3.60;;;20.90;73.60;;;;;;5072761;28;20499;-86
2022/06/17 00:03:57;;;;;;;12.23;3.90;;;20.90;74.20;;;;;;5073494;28;20456;-87
2022/06/17 00:06:32;;;;;;;5.43;2.90;;;20.90;74.60;;;;;;5074404;28;20461;-87
2022/06/17 00:08:59;;;;;;;5.80;3.97;;;20.90;75.20;;;;;;5076824;28;20473;-89
2022/06/17 00:11:29;;;;;;;5.00;3.27;;;20.80;75.30;;;;;;5077772;28;20477;-89
2022/06/17 00:13:57;;;;;;;4.40;2.83;;;20.80;75.40;;;;;;5076289;28;20416;-88
2022/06/17 00:16:25;;;;;;;5.40;3.67;;;20.80;75.80;;;;;;5075716;28;20441;-87
2022/06/17 00:18:53;;;;;;;7.53;3.17;;;20.70;75.80;;;;;;5073234;28;20472;-87
2022/06/17 00:21:24;;;;;;;6.20;3.60;;;20.70;76.00;;;;;;5070046;28;20517;-88
2022/06/17 00:23:52;;;;;;;6.90;2.70;;;20.60;76.30;;;;;;5066444;28;20460;-87
2022/06/17 00:26:19;;;;;;;6.13;3.40;;;20.60;76.60;;;;;;5070768;28;20539;-88
2022/06/17 00:28:48;;;;;;;6.67;4.43;;;20.80;76.50;;;;;;5065883;28;20465;-88
2022/06/17 00:31:15;;;;;;;6.03;3.27;;;20.60;76.60;;;;;;5066244;28;20482;-86
2022/06/17 00:33:42;;;;;;;4.70;3.27;;;20.60;77.30;;;;;;5068128;28;20545;-87
2022/06/17 00:36:12;;;;;;;4.90;3.27;;;20.60;77.30;;;;;;5070538;28;20551;-86
2022/06/17 00:38:39;;;;;;;4.90;3.10;;;20.50;77.20;;;;;;5067453;28;20453;-86
2022/06/17 00:41:17;;;;;;;5.43;4.03;;;20.50;77.70;;;;;;5066007;28;20536;-86
2022/06/17 00:43:44;;;;;;;4.60;3.00;;;20.50;78.00;;;;;;5065970;28;20826;-88
2022/06/17 00:46:23;;;;;;;4.00;2.70;;;20.50;78.50;;;;;;5065418;28;20827;-87
2022/06/17 00:49:03;;;;;;;8.57;3.20;;;20.50;78.40;;;;;;5068071;28;21000;-86
2022/06/17 00:51:36;;;;;;;4.50;3.20;;;20.50;78.60;;;;;;5067422;28;20909;-87
2022/06/17 00:54:14;;;;;;;5.60;3.57;;;20.50;79.10;;;;;;5074222;28;20468;-87
2022/06/17 00:56:42;;;;;;;5.80;3.63;;;20.50;79.40;;;;;;5072497;28;20968;-87
2022/06/17 00:59:13;;;;;;;6.03;3.23;;;20.40;79.20;;;;;;5065072;28;20583;-88
2022/06/17 01:01:46;;;;;;;12.67;3.30;;;20.40;79.10;;;;;;5064217;28;20437;-87
2022/06/17 01:04:16;;;;;;;6.17;3.40;;;20.40;79.60;;;;;;5063901;28;20445;-86
2022/06/17 01:06:48;;;;;;;5.10;3.50;;;20.30;80.10;;;;;;5065512;28;20429;-86
2022/06/17 01:12:09;;;;;;;5.93;3.30;;;20.10;81.80;;;;;;5080329;28;20479;-89
2022/06/17 01:14:39;;;;;;;5.90;3.33;;;20.00;81.40;;;;;;5080461;28;20475;-87
2022/06/17 01:17:06;;;;;;;4.90;3.47;;;20.00;81.70;;;;;;5080087;28;20472;-88
2022/06/17 01:19:40;;;;;;;5.20;3.70;;;19.90;81.90;;;;;;5077294;28;20453;-85
2022/06/17 01:22:16;;;;;;;6.30;2.90;;;19.90;82.30;;;;;;5078194;28;20464;-87
2022/06/17 01:24:46;;;;;;;7.50;3.33;;;19.80;82.50;;;;;;5073856;28;20485;-86
2022/06/17 01:27:16;;;;;;;4.60;2.73;;;19.80;83.00;;;;;;5070440;28;20480;-86
2022/06/17 01:29:43;;;;;;;5.77;3.30;;;19.70;83.30;;;;;;5097000;22;20531;-85
2022/06/17 01:32:10;;;;;;;4.93;3.00;;;19.70;83.90;;;;;;5065786;28;20493;-84
2022/06/17 01:34:37;;;;;;;4.67;2.63;;;19.60;84.20;;;;;;5069041;28;20449;-84
2022/06/17 01:37:05;;;;;;;5.60;2.90;;;19.70;84.50;;;;;;5065455;28;20539;-84
2022/06/17 01:39:32;;;;;;;5.53;3.53;;;19.70;84.60;;;;;;5064825;28;20479;-84
2022/06/17 01:42:00;;;;;;;8.60;2.70;;;19.70;84.80;;;;;;5075812;28;20440;-84
2022/06/17 01:44:33;;;;;;;6.60;2.60;;;19.60;84.60;;;;;;5079995;28;20437;-86
2022/06/17 01:47:03;;;;;;;5.03;3.03;;;19.60;85.20;;;;;;5079507;28;20471;-85
2022/06/17 01:49:36;;;;;;;7.80;3.33;;;19.50;85.20;;;;;;5070190;28;20469;-85
2022/06/17 01:52:13;;;;;;;4.20;2.77;;;19.50;85.60;;;;;;5069342;28;20460;-85
2022/06/17 01:54:48;;;;;;;4.67;3.07;;;19.40;86.00;;;;;;5070547;28;20440;-85
2022/06/17 01:57:28;;;;;;;5.07;2.87;;;19.30;86.70;;;;;;5078881;28;20441;-85
2022/06/17 02:00:02;;;;;;;7.13;3.47;;;19.30;87.00;;;;;;5071020;28;20484;-85
2022/06/17 02:02:31;;;;;;;6.00;3.53;;;19.20;87.40;;;;;;5069843;28;20417;-84
2022/06/17 02:05:06;;;;;;;6.10;3.30;;;19.20;87.70;;;;;;5068252;28;20448;-85
2022/06/17 02:07:44;;;;;;;4.70;2.97;;;19.30;88.30;;;;;;5069610;28;20441;-85
2022/06/17 02:10:12;;;;;;;8.70;3.30;;;19.20;88.70;;;;;;5067725;28;20472;-84
2022/06/17 02:12:41;;;;;;;6.90;2.90;;;19.10;89.70;;;;;;5070956;28;20536;-84
2022/06/17 02:15:10;;;;;;;4.00;2.67;;;19.10;90.40;;;;;;5069815;28;20445;-85
2022/06/17 02:17:41;;;;;;;5.20;2.80;;;19.00;90.80;;;;;;5070572;28;20452;-85
2022/06/17 02:20:12;;;;;;;4.73;3.00;;;19.00;91.10;;;;;;5069751;28;20480;-84
2022/06/17 02:22:39;;;;;;;5.83;3.07;;;19.00;91.40;;;;;;5069124;28;20425;-85
2022/06/17 02:25:10;;;;;;;4.63;3.03;;;19.00;91.30;;;;;;5068856;28;20448;-85
2022/06/17 02:27:38;;;;;;;4.17;2.93;;;19.10;91.20;;;;;;5072618;28;20468;-84
2022/06/17 02:30:09;;;;;;;6.23;3.17;;;19.00;91.30;;;;;;5071941;28;20479;-84
2022/06/17 02:32:37;;;;;;;5.17;3.50;;;18.90;91.70;;;;;;5068315;28;20485;-85
2022/06/17 02:35:10;;;;;;;5.60;3.13;;;18.80;92.10;;;;;;5068128;28;20837;-85
2022/06/17 02:37:38;;;;;;;4.40;2.90;;;18.80;92.30;;;;;;5067555;28;20858;-85
2022/06/17 02:40:11;;;;;;;6.40;3.30;;;18.70;92.50;;;;;;5068398;28;20472;-85
2022/06/17 02:42:40;;;;;;;4.27;3.00;;;18.70;92.70;;;;;;5069177;28;20468;-85
2022/06/17 02:45:15;;;;;;;4.27;2.63;;;18.60;93.40;;;;;;5069025;28;20551;-85
2022/06/17 02:47:44;;;;;;;9.40;3.17;;;18.40;93.80;;;;;;5075500;28;20453;-84
2022/06/17 02:50:18;;;;;;;4.00;2.93;;;18.30;94.60;;;;;;5074201;28;20477;-83
2022/06/17 02:52:45;;;;;;;4.37;3.33;;;18.30;94.90;;;;;;5076093;28;20471;-84
2022/06/17 02:55:17;;;;;;;5.90;3.03;;;18.40;94.90;;;;;;5068163;28;20468;-84
2022/06/17 02:57:47;;;;;;;4.57;3.20;;;18.30;95.20;;;;;;5069370;28;20436;-84
2022/06/17 03:00:20;;;;;;;5.07;3.33;;;18.30;95.50;;;;;;5068701;28;20568;-84
2022/06/17 03:02:50;;;;;;;6.47;4.20;;;18.30;95.60;;;;;;5076221;28;20445;-83
2022/06/17 03:05:22;;;;;;;5.47;3.60;;;18.40;95.70;;;;;;5077913;28;20421;-83
2022/06/17 03:07:50;;;;;;;5.53;3.40;;;18.30;96.00;;;;;;5068363;28;20441;-83
2022/06/17 03:10:19;;;;;;;5.67;3.17;;;18.20;96.50;;;;;;5068485;28;20472;-84
2022/06/17 03:12:52;;;;;;;7.67;3.17;;;18.20;96.70;;;;;;5075311;28;20485;-83
2022/06/17 03:15:22;;;;;;;6.00;3.40;;;18.20;96.70;;;;;;5077379;28;20488;-84
2022/06/17 03:17:49;;;;;;;5.60;3.30;;;18.10;96.80;;;;;;5073374;28;20442;-84
2022/06/17 03:20:21;;;;;;;4.10;2.90;;;18.20;97.00;;;;;;5066827;28;20507;-84
2022/06/17 03:22:52;;;;;;;4.60;2.93;;;18.10;96.80;;;;;;5067819;28;20430;-84
2022/06/17 03:25:26;;;;;;;6.23;3.37;;;18.00;97.20;;;;;;5067984;28;20469;-84
2022/06/17 03:27:57;;;;;;;5.03;2.90;;;18.00;97.70;;;;;;5076477;28;20816;-83
2022/06/17 03:30:27;;;;;;;4.73;3.00;;;17.90;97.70;;;;;;5074472;28;20489;-85
2022/06/17 03:33:01;;;;;;;8.23;3.60;;;18.00;98.50;;;;;;5073284;28;20465;-86
2022/06/17 03:35:31;;;;;;;6.03;3.50;;;18.00;98.20;;;;;;5059045;28;20436;-86
2022/06/17 03:38:02;;;;;;;5.00;3.23;;;18.00;98.20;;;;;;5061403;28;20455;-86
2022/06/17 03:40:34;;;;;;;5.30;3.27;;;18.00;98.40;;;;;;5075018;28;20528;-86
2022/06/17 03:43:06;;;;;;;4.43;3.10;;;18.00;98.60;;;;;;5073367;28;20464;-86
2022/06/17 03:45:43;;;;;;;8.03;3.40;;;18.00;98.70;;;;;;5059988;28;20436;-86
2022/06/17 03:48:17;;;;;;;6.93;3.20;;;18.00;98.60;;;;;;5057272;28;20448;-86
2022/06/17 03:50:48;;;;;;;8.87;3.73;;;18.00;98.70;;;;;;5060147;28;20504;-86
2022/06/17 03:53:24;;;;;;;4.50;3.20;;;18.00;99.20;;;;;;5077628;28;20477;-87
2022/06/17 03:55:52;;;;;;;7.50;3.47;;;17.90;99.10;;;;;;5078096;28;20417;-87
2022/06/17 03:58:20;;;;;;;4.83;2.90;;;17.80;99.90;;;;;;5073468;28;20484;-86
2022/06/17 04:00:52;;;;;;;6.43;3.57;;;17.90;99.80;;;;;;5057452;28;20896;-86
2022/06/17 04:03:22;;;;;;;5.90;3.80;;;18.00;99.80;;;;;;5064125;28;20422;-87
2022/06/17 04:05:54;;;;;;;8.13;3.93;;;18.00;99.50;;;;;;5077824;28;20417;-87
2022/06/17 04:08:21;;;;;;;5.93;3.80;;;18.00;99.70;;;;;;5071824;28;20458;-86
2022/06/17 04:10:48;;;;;;;5.37;3.60;;;18.00;99.90;;;;;;5055082;28;20479;-86
2022/06/17 04:13:18;;;;;;;4.70;3.37;;;18.00;99.90;;;;;;5055202;28;21072;-86
2022/06/17 04:15:54;;;;;;;7.00;3.43;;;18.00;99.90;;;;;;5058473;28;20839;-86
2022/06/17 04:18:21;;;;;;;4.43;2.97;;;18.00;99.90;;;;;;5055548;28;20437;-86
2022/06/17 04:20:51;;;;;;;4.73;3.57;;;17.90;99.90;;;;;;5063922;28;20590;-86
2022/06/17 04:23:20;;;;;;;5.43;3.73;;;17.90;99.90;;;;;;5071677;28;20441;-86
2022/06/17 04:25:53;;;;;;;5.10;3.30;;;18.00;99.90;;;;;;5067273;28;20536;-86
2022/06/17 04:28:24;;;;;;;7.50;3.53;;;18.00;99.90;;;;;;5071838;28;20454;-86
2022/06/17 04:30:56;;;;;;;5.03;3.27;;;18.10;99.90;;;;;;5077604;28;20468;-86
2022/06/17 04:33:26;;;;;;;5.67;3.80;;;18.00;99.90;;;;;;5073160;28;20516;-86
2022/06/17 04:36:00;;;;;;;4.83;3.67;;;18.00;99.90;;;;;;5058899;28;20545;-86
2022/06/17 04:38:29;;;;;;;5.33;3.10;;;18.10;99.90;;;;;;5056220;28;20433;-86
2022/06/17 04:40:59;;;;;;;9.07;3.80;;;18.00;99.90;;;;;;5055393;28;20560;-86
2022/06/17 04:43:31;;;;;;;5.27;3.77;;;18.00;99.90;;;;;;5068634;28;20428;-86
2022/06/17 04:46:07;;;;;;;5.57;3.03;;;18.00;99.90;;;;;;5073380;28;20430;-86
2022/06/17 04:48:34;;;;;;;5.77;4.07;;;18.00;99.90;;;;;;5070849;28;20437;-86
2022/06/17 04:51:02;;;;;;;6.10;3.20;;;18.00;99.90;;;;;;5074262;28;20521;-86
2022/06/17 04:53:30;;;;;;;4.90;3.10;;;18.00;99.90;;;;;;5059840;28;20512;-86
2022/06/17 04:55:58;;;;;;;5.40;3.77;;;18.10;99.90;;;;;;5059596;28;21009;-86
2022/06/17 04:58:27;;;;;;;8.00;3.70;;;18.10;99.90;;;;;;5059661;28;20536;-86
2022/06/17 05:00:56;;;;;;;5.30;3.40;;;18.30;99.90;;;;;;5059158;28;20465;-86
2022/06/17 05:03:27;;;;;;;10.13;4.90;;;18.30;99.90;;;;;;5058467;28;20539;-86
2022/06/17 05:05:54;;;;;;;5.33;3.20;;;18.30;99.90;;;;;;5059465;28;20444;-86
2022/06/17 05:08:27;;;;;;;7.40;3.27;;;18.40;99.90;;;;;;5061026;28;20820;-86
2022/06/17 05:11:00;;;;;;;5.40;3.80;;;18.50;99.90;;;;;;5069255;28;20473;-85
2022/06/17 05:13:31;;;;;;;6.40;3.33;;;18.60;99.90;;;;;;5071500;28;21020;-85
2022/06/17 05:16:12;;;;;;;6.00;3.20;;;18.60;99.90;;;;;;5070552;28;20438;-86
2022/06/17 05:18:43;;;;;;;5.13;3.50;;;18.60;99.90;;;;;;5075549;28;20957;-84
2022/06/17 05:21:19;;;;;;;6.00;4.10;;;18.70;99.90;;;;;;5064353;28;20456;-84
2022/06/17 05:23:46;;;;;;;7.20;3.93;;;18.70;99.90;;;;;;5064305;28;20457;-84
2022/06/17 05:26:13;;;;;;;5.13;3.50;;;18.80;99.90;;;;;;5063577;28;20485;-84
2022/06/17 05:28:40;;;;;;;6.60;3.27;;;18.90;99.90;;;;;;5064424;28;20522;-85
2022/06/17 05:31:07;;;;;;;4.50;3.27;;;19.00;99.90;;;;;;5063979;28;20849;-84
2022/06/17 05:33:36;;;;;;;6.93;3.80;;;19.00;99.90;;;;;;5064968;28;20575;-84
2022/06/17 05:36:07;;;;;;;6.57;3.83;;;19.10;99.90;;;;;;5066824;28;20540;-85
2022/06/17 05:38:34;;;;;;;6.40;4.07;;;19.10;99.90;;;;;;5067268;28;20434;-84
2022/06/17 05:41:01;;;;;;;6.67;3.70;;;19.20;99.90;;;;;;5078720;28;20469;-86
2022/06/17 05:43:28;;;;;;;11.87;4.73;;;19.30;99.90;;;;;;5078846;28;20469;-85
2022/06/17 05:45:55;;;;;;;5.93;3.77;;;19.30;98.80;;;;;;5069734;28;20454;-84
2022/06/17 05:48:22;;;;;;;6.93;4.03;;;19.40;98.60;;;;;;5073592;28;20441;-84
2022/06/17 05:50:49;;;;;;;6.70;3.93;;;19.50;98.30;;;;;;5080127;28;20485;-84
2022/06/17 05:53:17;;;;;;;7.43;4.23;;;19.50;97.10;;;;;;5073954;28;20481;-85
2022/06/17 05:55:45;;;;;;;8.73;4.23;;;19.60;97.00;;;;;;5068366;28;20520;-85
2022/06/17 05:58:12;;;;;;;6.57;4.40;;;19.70;96.50;;;;;;5065693;28;20888;-84
2022/06/17 06:00:39;;;;;;;6.07;3.90;;;19.80;96.10;;;;;;5068061;28;21085;-84
2022/06/17 06:03:07;;;;;;;6.23;3.90;;;19.90;95.90;;;;;;5079282;28;20483;-87
2022/06/17 06:05:35;;;;;;;5.10;3.17;;;20.00;95.50;;;;;;5079182;28;20460;-86
2022/06/17 06:08:02;;;;;;;5.17;3.50;;;20.20;95.10;;;;;;5070968;28;21009;-84
2022/06/17 06:10:30;;;;;;;5.90;3.07;;;20.20;95.00;;;;;;5068102;28;20532;-84
2022/06/17 06:13:00;;;;;;;10.50;3.70;;;20.30;94.20;;;;;;5078323;28;20464;-86
2022/06/17 06:15:30;;;;;;;7.60;3.33;;;20.40;93.50;;;;;;5079656;28;20441;-85
2022/06/17 06:17:57;;;;;;;5.67;3.40;;;20.30;93.90;;;;;;5079128;28;20445;-85
2022/06/17 06:20:25;;;;;;;6.27;3.90;;;20.30;93.90;;;;;;5069419;28;20473;-84
2022/06/17 06:22:52;;;;;;;9.90;3.93;;;20.40;93.70;;;;;;5060901;28;20452;-84
2022/06/17 06:25:20;;;;;;;9.73;4.40;;;20.60;93.60;;;;;;5060360;28;20552;-84
2022/06/17 06:27:48;;;;;;;6.23;3.60;;;20.70;93.10;;;;;;5059166;28;20453;-84
2022/06/17 06:30:21;;;;;;;6.73;4.13;;;20.60;93.10;;;;;;5059676;28;20504;-84
2022/06/17 06:32:50;;;;;;;4.90;3.40;;;20.40;93.20;;;;;;5063236;28;20512;-85
2022/06/17 06:35:18;;;;;;;10.53;3.57;;;20.50;93.40;;;;;;5069588;28;20481;-85
2022/06/17 06:37:45;;;;;;;5.60;3.30;;;20.70;93.10;;;;;;5069505;28;20488;-85
2022/06/17 06:40:13;;;;;;;5.73;4.10;;;20.80;93.30;;;;;;5066349;28;20624;-88
2022/06/17 06:42:40;;;;;;;10.13;4.47;;;20.70;93.10;;;;;;5073297;28;20446;-85
2022/06/17 06:45:14;;;;;;;6.73;3.93;;;20.70;93.30;;;;;;5077671;28;20487;-85
2022/06/17 06:47:41;;;;;;;5.63;3.57;;;20.80;93.00;;;;;;5071673;28;20440;-85
2022/06/17 06:50:12;;;;;;;7.33;3.67;;;20.90;92.80;;;;;;5076935;28;20497;-84
2022/06/17 06:52:38;;;;;;;5.83;3.50;;;20.90;92.70;;;;;;5067982;28;20491;-85
2022/06/17 06:55:06;;;;;;;6.73;3.70;;;20.90;92.60;;;;;;5067188;28;20576;-84
2022/06/17 06:57:33;;;;;;;5.80;3.73;;;21.10;92.30;;;;;;5065962;28;20520;-84
2022/06/17 07:00:01;;;;;;;5.10;3.57;;;21.10;92.10;;;;;;5065638;28;20505;-84
2022/06/17 07:02:30;;;;;;;6.73;3.80;;;21.20;92.10;;;;;;5065215;28;20452;-84
2022/06/17 07:05:07;;;;;;;9.30;6.90;;;21.20;92.00;;;;;;5071484;28;20472;-86
2022/06/17 07:07:41;;;;;;;7.77;4.17;;;21.00;92.10;;;;;;5078708;28;20430;-85
2022/06/17 07:10:12;;;;;;;5.47;3.80;;;21.10;92.20;;;;;;5074556;28;20468;-83
2022/06/17 07:12:39;;;;;;;7.30;3.60;;;21.30;92.10;;;;;;5064134;28;20461;-83
2022/06/17 07:15:07;;;;;;;6.60;3.63;;;21.40;92.10;;;;;;5060762;28;20484;-83
2022/06/17 07:17:35;;;;;;;6.20;3.97;;;21.50;91.90;;;;;;5060424;28;20857;-84
2022/06/17 07:20:02;;;;;;;8.07;4.20;;;21.60;91.80;;;;;;5061208;28;20532;-84
2022/06/17 07:22:31;;;;;;;6.77;4.17;;;21.70;91.40;;;;;;5073634;28;20453;-83
2022/06/17 07:24:58;;;;;;;6.90;4.03;;;21.90;91.30;;;;;;5076950;28;20432;-83
2022/06/17 07:30:16;;;;;;;6.50;3.90;;;22.00;91.10;;;;;;5084214;22;20496;-87
2022/06/17 07:32:44;;;;;;;7.30;4.37;;;22.10;91.00;;;;;;5061554;28;20458;-86
2022/06/17 07:35:12;;;;;;;5.50;3.67;;;22.20;90.80;;;;;;5061541;28;20547;-87
2022/06/17 07:40:23;;;;;;;8.03;4.20;;;22.20;90.50;;;;;;5060889;28;20809;-86
2022/06/17 07:42:50;;;;;;;7.20;4.07;;;22.30;90.50;;;;;;5060638;28;20540;-87
2022/06/17 07:45:19;;;;;;;8.17;4.40;;;22.20;90.50;;;;;;5060271;28;20453;-87
2022/06/17 07:47:49;;;;;;;11.33;4.03;;;22.30;90.80;;;;;;5059008;28;20980;-85
2022/06/17 07:50:19;;;;;;;6.83;4.00;;;22.40;90.40;;;;;;5057726;28;20473;-85
2022/06/17 07:52:47;;;;;;;7.80;4.40;;;22.60;90.30;;;;;;5058671;28;20449;-87
2022/06/17 07:55:15;;;;;;;9.63;4.10;;;22.60;90.50;;;;;;5059094;28;20528;-87
2022/06/17 07:57:42;;;;;;;6.60;4.07;;;22.60;90.30;;;;;;5058631;28;20449;-87
2022/06/17 08:00:13;;;;;;;6.40;4.57;;;22.80;90.10;;;;;;5060674;28;21004;-88
2022/06/17 08:02:40;;;;;;;7.00;4.57;;;23.00;90.30;;;;;;5063636;28;20487;-87
2022/06/17 08:05:09;;;;;;;7.70;4.10;;;23.20;89.10;;;;;;5062733;28;20445;-88
2022/06/17 08:07:36;;;;;;;7.43;4.33;;;23.20;88.80;;;;;;5070948;28;20453;-87
2022/06/17 08:10:04;;;;;;;6.40;4.37;;;23.30;89.50;;;;;;5066225;28;20557;-86
2022/06/17 08:12:31;;;;;;;7.53;4.23;;;23.30;87.60;;;;;;5059794;28;20465;-86
2022/06/17 08:14:58;;;;;;;6.03;4.40;;;23.20;87.90;;;;;;5067721;28;20512;-86
2022/06/17 08:17:25;;;;;;;6.10;4.13;;;23.20;88.10;;;;;;5066238;28;20512;-86
2022/06/17 08:19:56;;;;;;;6.23;4.53;;;23.30;87.60;;;;;;5062191;28;20497;-87
2022/06/17 08:22:25;;;;;;;5.13;4.50;;;23.40;86.20;;;;;;5060855;28;20488;-87
2022/06/17 08:24:52;;;;;;;7.27;4.27;;;23.50;85.40;;;;;;5059814;28;20449;-87
2022/06/17 08:27:19;;;;;;;7.57;5.00;;;23.70;83.80;;;;;;5059874;28;20536;-88
2022/06/17 08:29:46;;;;;;;7.93;4.43;;;23.70;85.60;;;;;;5063039;28;20577;-87
2022/06/17 08:34:58;;;;;;;4.97;4.00;;;23.70;84.90;;;;;;5066019;28;20511;-87
2022/06/17 08:37:26;;;;;;;5.00;3.70;;;23.60;84.70;;;;;;5065826;28;20508;-87
2022/06/17 08:39:53;;;;;;;8.33;4.00;;;23.60;81.60;;;;;;5065414;28;20479;-86
2022/06/17 08:42:36;;;;;;;6.57;4.07;;;23.60;80.10;;;;;;5068422;28;20513;-86
2022/06/17 08:45:11;;;;;;;6.17;3.57;;;23.80;79.40;;;;;;5077825;28;20425;-85
2022/06/17 08:47:57;;;;;;;5.10;4.10;;;23.90;78.10;;;;;;5071327;28;20517;-85
2022/06/17 08:50:38;;;;;;;13.57;3.40;;;24.00;76.10;;;;;;5068339;28;20512;-88
2022/06/17 08:53:34;;;;;;;5.77;3.90;;;24.10;73.60;;;;;;5069202;28;20413;-87
2022/06/17 08:56:06;;;;;;;5.67;3.70;;;23.80;74.20;;;;;;5071547;28;20421;-86
2022/06/17 08:58:42;;;;;;;6.00;3.73;;;23.70;77.00;;;;;;5072571;28;20460;-87
2022/06/17 09:01:14;;;;;;;8.53;4.40;;;23.70;77.40;;;;;;5076182;28;20464;-86
2022/06/17 09:04:00;;;;;;;6.13;4.00;;;23.70;77.30;;;;;;5074501;28;20524;-87
2022/06/17 09:06:42;;;;;;;6.50;4.03;;;23.80;76.10;;;;;;5068375;28;20458;-86
2022/06/17 09:09:28;;;;;;;6.70;3.70;;;23.90;74.70;;;;;;5066085;28;20457;-86
2022/06/17 09:12:03;;;;;;;7.80;4.43;;;24.10;74.70;;;;;;5064280;28;20483;-87
2022/06/17 09:14:41;;;;;;;6.33;3.67;;;24.10;73.80;;;;;;5064374;28;20571;-88
2022/06/17 09:17:16;;;;;;;10.87;4.80;;;24.30;73.90;;;;;;5063578;28;20528;-86
2022/06/17 09:19:47;;;;;;;6.27;3.60;;;24.50;73.50;;;;;;5064570;28;20559;-86
2022/06/17 09:22:20;;;;;;;7.73;4.63;;;24.60;73.30;;;;;;5064601;28;20430;-87
2022/06/17 09:24:48;;;;;;;5.10;3.57;;;24.60;72.30;;;;;;5062995;28;20449;-86
2022/06/17 09:27:22;;;;;;;6.50;3.70;;;24.70;71.40;;;;;;5065321;28;20464;-86
2022/06/17 09:29:55;;;;;;;8.10;4.00;;;24.70;71.30;;;;;;5067553;28;20852;-86
2022/06/17 09:32:27;;;;;;;6.30;4.43;;;24.60;70.20;;;;;;5064990;28;20501;-86
2022/06/17 09:34:59;;;;;;;7.03;4.03;;;24.60;70.00;;;;;;5070542;28;20479;-86
2022/06/17 09:37:34;;;;;;;9.50;5.00;;;24.80;69.80;;;;;;5075919;28;20444;-86
2022/06/17 09:40:09;;;;;;;8.00;4.10;;;24.70;68.60;;;;;;5073353;28;20469;-86
2022/06/17 09:42:40;;;;;;;6.03;3.57;;;24.60;68.60;;;;;;5068342;28;20472;-86
2022/06/17 09:45:15;;;;;;;7.67;4.07;;;24.70;68.80;;;;;;5065989;28;20469;-86
2022/06/17 09:47:47;;;;;;;7.60;4.20;;;24.70;67.80;;;;;;5072704;28;20540;-84
2022/06/17 09:50:19;;;;;;;5.07;3.50;;;24.80;67.70;;;;;;5078653;28;20496;-84
2022/06/17 09:52:52;;;;;;;5.67;3.80;;;24.90;67.00;;;;;;5078505;28;20458;-87
2022/06/17 09:55:25;;;;;;;7.03;4.57;;;25.00;65.40;;;;;;5067094;28;20476;-87
2022/06/17 09:58:01;;;;;;;8.87;4.47;;;25.10;65.00;;;;;;5065180;28;20881;-88
2022/06/17 10:00:36;;;;;;;7.03;3.70;;;25.20;65.10;;;;;;5067465;28;20468;-86
2022/06/17 10:03:19;;;;;;;6.93;4.10;;;25.20;65.60;;;;;;5075134;28;20449;-86
2022/06/17 10:05:56;;;;;;;7.17;3.77;;;25.20;65.50;;;;;;5077691;28;20433;-88
2022/06/17 10:08:48;;;;;;;6.03;3.87;;;25.40;64.80;;;;;;5078397;28;20459;-86
2022/06/17 10:11:23;;;;;;;5.43;3.97;;;25.40;63.20;;;;;;5077251;28;20521;-86
2022/06/17 10:14:00;;;;;;;5.70;3.70;;;25.30;63.20;;;;;;5077591;28;20437;-86
2022/06/17 10:19:38;;;;;;;5.70;4.30;;;25.40;62.50;;;;;;5066945;28;20784;-88
2022/06/17 10:22:18;;;;;;;5.47;3.70;;;25.50;62.30;;;;;;5064639;28;20772;-87
2022/06/17 10:24:57;;;;;;;5.00;3.60;;;25.70;61.10;;;;;;5071897;28;20445;-87
2022/06/17 10:27:38;;;;;;;7.30;3.83;;;25.50;61.40;;;;;;5071838;28;20487;-86
2022/06/17 10:30:47;;;;;;;8.03;5.50;;;25.60;61.20;;;;;;5067266;28;20495;-88
2022/06/17 10:33:20;;;;;;;5.50;3.57;;;25.60;58.70;;;;;;5066458;28;20763;-87
2022/06/17 10:35:51;;;;;;;5.10;3.83;;;25.60;59.60;;;;;;5065841;28;20480;-87
2022/06/17 10:38:38;;;;;;;4.97;3.13;;;25.60;59.50;;;;;;5066566;28;20448;-87
2022/06/17 10:41:06;;;;;;;4.40;3.30;;;25.70;59.00;;;;;;5065376;28;20584;-87
2022/06/17 10:43:39;;;;;;;7.80;3.30;;;25.70;58.90;;;;;;5061531;28;20453;-87
2022/06/17 10:46:14;;;;;;;5.10;3.53;;;25.70;58.90;;;;;;5063298;28;20438;-86
2022/06/17 10:48:47;;;;;;;6.13;3.43;;;25.90;58.70;;;;;;5062465;28;20444;-87
2022/06/17 10:51:14;;;;;;;5.83;3.70;;;25.90;59.00;;;;;;5067837;28;20835;-88
2022/06/17 10:53:47;;;;;;;6.17;3.30;;;25.90;58.80;;;;;;5064433;28;20503;-86
2022/06/17 10:56:20;;;;;;;6.07;3.00;;;25.50;57.90;;;;;;5063096;28;20496;-87
2022/06/17 10:59:06;;;;;;;4.30;3.30;;;25.70;58.50;;;;;;5061910;28;20433;-86
2022/06/17 11:01:56;;;;;;;6.20;3.50;;;25.90;58.10;;;;;;5063421;28;20485;-87
2022/06/17 11:04:27;;;;;;;5.23;3.03;;;25.90;58.00;;;;;;5063022;28;20529;-87
2022/06/17 11:06:59;;;;;;;5.67;3.30;;;26.00;57.60;;;;;;5062411;28;20490;-86
2022/06/17 11:09:29;;;;;;;4.70;3.30;;;25.90;57.10;;;;;;5069946;28;20417;-86
2022/06/17 11:12:05;;;;;;;4.93;3.23;;;26.00;57.40;;;;;;5077027;28;20490;-87
2022/06/17 11:14:38;;;;;;;4.70;3.40;;;26.20;56.60;;;;;;5069920;28;20461;-87
2022/06/17 11:17:15;;;;;;;5.47;3.40;;;26.30;55.80;;;;;;5063937;28;20418;-86
2022/06/17 11:19:43;;;;;;;5.37;3.50;;;26.40;56.30;;;;;;5066799;28;20449;-86
2022/06/17 11:22:20;;;;;;;5.73;3.07;;;26.50;55.20;;;;;;5075738;28;20449;-88
2022/06/17 11:24:54;;;;;;;4.40;3.20;;;26.50;54.70;;;;;;5065983;28;20824;-87
2022/06/17 11:27:29;;;;;;;6.70;3.57;;;26.40;54.60;;;;;;5062941;28;20418;-87
2022/06/17 11:30:20;;;;;;;5.97;3.63;;;26.40;54.90;;;;;;5063585;28;20500;-87
2022/06/17 11:32:48;;;;;;;5.73;3.23;;;26.50;55.20;;;;;;5061813;28;20437;-88
2022/06/17 11:35:22;;;;;;;4.90;3.60;;;26.60;54.00;;;;;;5060842;28;20481;-87
2022/06/17 11:37:52;;;;;;;5.30;3.43;;;26.70;54.20;;;;;;5062080;28;20472;-87
2022/06/17 11:40:21;;;;;;;4.50;2.80;;;26.80;53.60;;;;;;5061840;28;20519;-88
2022/06/17 11:42:51;;;;;;;5.70;2.73;;;26.70;52.50;;;;;;5063022;28;20473;-87
2022/06/17 11:45:23;;;;;;;5.47;3.37;;;26.50;52.00;;;;;;5062680;28;20453;-87
2022/06/17 11:47:57;;;;;;;4.73;2.70;;;26.50;53.00;;;;;;5064106;28;20449;-87
2022/06/17 11:50:28;;;;;;;5.20;2.87;;;26.40;52.00;;;;;;5065142;28;20486;-87
2022/06/17 11:53:04;;;;;;;6.37;2.87;;;26.40;51.70;;;;;;5064287;28;20413;-87
2022/06/17 11:55:33;;;;;;;4.33;2.77;;;26.60;51.90;;;;;;5059667;28;20949;-87
2022/06/17 11:58:01;;;;;;;5.80;2.90;;;26.70;50.70;;;;;;5061554;28;20453;-87
2022/06/17 12:00:46;;;;;;;4.60;3.17;;;26.80;50.70;;;;;;5064640;28;20450;-87
2022/06/17 12:03:15;;;;;;;4.00;2.63;;;26.90;50.40;;;;;;5065825;28;20460;-87
2022/06/17 12:05:42;;;;;;;5.93;2.80;;;26.80;50.20;;;;;;5069735;28;20452;-87
2022/06/17 12:08:23;;;;;;;5.90;3.63;;;26.80;50.00;;;;;;5068179;28;20452;-87
2022/06/17 12:10:59;;;;;;;6.40;3.17;;;27.00;49.70;;;;;;5067817;28;20491;-88
2022/06/17 12:13:35;;;;;;;4.37;3.13;;;27.00;49.80;;;;;;5064609;28;20453;-87
2022/06/17 12:16:11;;;;;;;4.10;2.70;;;27.30;49.20;;;;;;5063557;28;20503;-87
2022/06/17 12:18:51;;;;;;;7.10;2.70;;;27.30;48.40;;;;;;5066144;28;20459;-87
2022/06/17 12:21:30;;;;;;;5.13;2.60;;;27.10;48.70;;;;;;5068231;28;20556;-87
2022/06/17 12:24:05;;;;;;;5.00;2.37;;;27.00;48.60;;;;;;5067879;28;20444;-87
2022/06/17 12:26:37;;;;;;;5.97;2.57;;;26.90;48.20;;;;;;5068826;28;20429;-89
2022/06/17 12:29:11;;;;;;;5.10;2.57;;;27.00;47.60;;;;;;5069514;28;20432;-87
2022/06/17 12:31:46;;;;;;;4.50;2.63;;;27.00;47.70;;;;;;5067940;28;20500;-86
2022/06/17 12:34:30;;;;;;;4.60;2.60;;;27.20;47.90;;;;;;5071662;28;20435;-86
2022/06/17 12:37:00;;;;;;;5.30;2.50;;;27.40;47.20;;;;;;5078797;28;20507;-86
2022/06/17 12:39:36;;;;;;;6.00;2.90;;;27.60;46.40;;;;;;5078979;28;20479;-86
2022/06/17 12:42:08;;;;;;;6.20;2.93;;;27.60;46.70;;;;;;5075381;28;20774;-87
2022/06/17 12:44:49;;;;;;;4.53;2.80;;;27.70;46.70;;;;;;5074956;28;20451;-87
2022/06/17 12:47:25;;;;;;;5.63;2.80;;;27.80;46.00;;;;;;5063492;28;20425;-88
2022/06/17 12:55:58;;;;;;;3.60;2.20;;;27.70;45.60;;;;;;5065361;28;20488;-87
2022/06/17 12:58:42;;;;;;;4.70;2.47;;;27.70;46.80;;;;;;5072083;28;20448;-87
2022/06/17 13:01:17;;;;;;;8.73;2.67;;;27.60;46.40;;;;;;5068790;28;20484;-87
2022/06/17 13:04:07;;;;;;;4.90;2.83;;;27.40;46.60;;;;;;5066224;28;20448;-85
2022/06/17 13:06:45;;;;;;;5.30;2.33;;;27.70;46.20;;;;;;5070063;28;20422;-87
2022/06/17 13:09:18;;;;;;;4.00;2.20;;;27.60;45.10;;;;;;5079945;28;20522;-84
2022/06/17 13:12:03;;;;;;;7.90;2.90;;;27.70;45.10;;;;;;5080376;28;20452;-87
2022/06/17 13:14:44;;;;;;;6.00;3.27;;;27.80;46.20;;;;;;5077983;28;20398;-87
2022/06/17 13:17:20;;;;;;;3.50;1.93;;;27.90;45.60;;;;;;5080464;28;20503;-84
2022/06/17 13:19:55;;;;;;;3.90;2.10;;;27.90;44.50;;;;;;5079406;28;20468;-87
2022/06/17 13:22:27;;;;;;;4.17;2.50;;;27.90;44.70;;;;;;5069874;28;20429;-87
2022/06/17 13:25:02;;;;;;;4.40;2.10;;;28.10;44.50;;;;;;5065074;28;20471;-87
2022/06/17 13:27:38;;;;;;;3.83;2.03;;;28.00;43.80;;;;;;5064250;28;20410;-88
2022/06/17 13:32:39;;;;;;;4.70;2.33;;;28.20;43.10;;;;;;5095991;22;20481;-85